sensor_id;sensor_type;location;lat;lon;timestamp;P1;durP1;ratioP1;P2;durP2;ratioP2
40847;SDS011;26570;50.962;5.340;2023-07-02T00:06:15;17.17;;;6.10;;
40847;SDS011;26570;50.962;5.340;2023-07-02T00:09:38;19.00;;;7.17;;
40847;SDS011;26570;50.962;5.340;2023-07-02T00:12:55;17.03;;;7.80;;
40847;SDS011;26570;50.962;5.340;2023-07-02T00:16:05;24.57;;;7.33;;
40847;SDS011;26570;50.962;5.340;2023-07-02T00:19:22;16.27;;;7.50;;
40847;SDS011;26570;50.962;5.340;2023-07-02T00:22:30;21.90;;;8.30;;
40847;SDS011;26570;50.962;5.340;2023-07-02T00:25:23;20.20;;;7.70;;
40847;SDS011;26570;50.962;5.340;2023-07-02T00:28:33;22.00;;;8.70;;
40847;SDS011;26570;50.962;5.340;2023-07-02T00:32:07;23.53;;;9.50;;
40847;SDS011;26570;50.962;5.340;2023-07-02T00:35:48;25.53;;;9.27;;
40847;SDS011;26570;50.962;5.340;2023-07-02T00:39:07;21.10;;;9.13;;
40847;SDS011;26570;50.962;5.340;2023-07-02T00:42:14;25.77;;;9.80;;
40847;SDS011;26570;50.962;5.340;2023-07-02T00:45:04;29.17;;;10.73;;
40847;SDS011;26570;50.962;5.340;2023-07-02T00:48:29;29.63;;;11.13;;
40847;SDS011;26570;50.962;5.340;2023-07-02T00:51:58;27.23;;;10.17;;
40847;SDS011;26570;50.962;5.340;2023-07-02T00:55:29;35.00;;;11.33;;
40847;SDS011;26570;50.962;5.340;2023-07-02T00:58:47;31.10;;;11.37;;
40847;SDS011;26570;50.962;5.340;2023-07-02T01:01:47;25.88;;;11.50;;
40847;SDS011;26570;50.962;5.340;2023-07-02T01:05:02;27.20;;;11.77;;
40847;SDS011;26570;50.962;5.340;2023-07-02T01:08:31;27.87;;;11.73;;
40847;SDS011;26570;50.962;5.340;2023-07-02T01:14:36;26.83;;;11.80;;
40847;SDS011;26570;50.962;5.340;2023-07-02T01:18:20;27.53;;;11.80;;
40847;SDS011;26570;50.962;5.340;2023-07-02T01:21:28;24.77;;;11.63;;
40847;SDS011;26570;50.962;5.340;2023-07-02T01:24:46;32.77;;;12.57;;
40847;SDS011;26570;50.962;5.340;2023-07-02T01:28:23;35.00;;;13.83;;
40847;SDS011;26570;50.962;5.340;2023-07-02T01:31:40;41.10;;;13.83;;
40847;SDS011;26570;50.962;5.340;2023-07-02T01:35:18;33.23;;;13.67;;
40847;SDS011;26570;50.962;5.340;2023-07-02T01:38:37;31.53;;;12.73;;
40847;SDS011;26570;50.962;5.340;2023-07-02T01:41:37;30.80;;;13.53;;
40847;SDS011;26570;50.962;5.340;2023-07-02T01:45:07;32.70;;;14.83;;
40847;SDS011;26570;50.962;5.340;2023-07-02T01:48:21;33.23;;;13.23;;
40847;SDS011;26570;50.962;5.340;2023-07-02T01:51:14;29.47;;;13.43;;
40847;SDS011;26570;50.962;5.340;2023-07-02T01:54:38;37.22;;;13.75;;
40847;SDS011;26570;50.962;5.340;2023-07-02T01:57:28;31.67;;;14.60;;
40847;SDS011;26570;50.962;5.340;2023-07-02T02:00:20;33.67;;;13.47;;
40847;SDS011;26570;50.962;5.340;2023-07-02T02:03:41;36.27;;;14.63;;
40847;SDS011;26570;50.962;5.340;2023-07-02T02:07:23;35.03;;;13.70;;
40847;SDS011;26570;50.962;5.340;2023-07-02T02:10:49;31.17;;;13.33;;
40847;SDS011;26570;50.962;5.340;2023-07-02T02:13:43;32.23;;;13.37;;
40847;SDS011;26570;50.962;5.340;2023-07-02T02:17:03;30.67;;;14.13;;
40847;SDS011;26570;50.962;5.340;2023-07-02T02:20:01;32.97;;;14.37;;
40847;SDS011;26570;50.962;5.340;2023-07-02T02:23:00;36.10;;;15.37;;
40847;SDS011;26570;50.962;5.340;2023-07-02T02:26:13;32.50;;;14.43;;
40847;SDS011;26570;50.962;5.340;2023-07-02T02:29:58;34.75;;;14.30;;
40847;SDS011;26570;50.962;5.340;2023-07-02T02:33:05;40.90;;;15.90;;
40847;SDS011;26570;50.962;5.340;2023-07-02T02:36:28;32.50;;;14.87;;
40847;SDS011;26570;50.962;5.340;2023-07-02T02:39:35;35.70;;;15.93;;
40847;SDS011;26570;50.962;5.340;2023-07-02T02:42:34;40.40;;;14.73;;
40847;SDS011;26570;50.962;5.340;2023-07-02T02:45:30;34.03;;;14.60;;
40847;SDS011;26570;50.962;5.340;2023-07-02T02:48:35;37.97;;;16.53;;
40847;SDS011;26570;50.962;5.340;2023-07-02T02:51:35;37.97;;;15.87;;
40847;SDS011;26570;50.962;5.340;2023-07-02T02:55:05;36.93;;;15.00;;
40847;SDS011;26570;50.962;5.340;2023-07-02T02:58:26;37.75;;;15.18;;
40847;SDS011;26570;50.962;5.340;2023-07-02T03:01:50;38.13;;;17.13;;
40847;SDS011;26570;50.962;5.340;2023-07-02T03:05:18;37.73;;;16.63;;
40847;SDS011;26570;50.962;5.340;2023-07-02T03:11:39;36.63;;;16.20;;
40847;SDS011;26570;50.962;5.340;2023-07-02T03:14:41;36.67;;;16.07;;
40847;SDS011;26570;50.962;5.340;2023-07-02T03:18:05;40.13;;;16.27;;
40847;SDS011;26570;50.962;5.340;2023-07-02T03:21:22;49.27;;;20.13;;
40847;SDS011;26570;50.962;5.340;2023-07-02T03:24:47;45.17;;;17.67;;
40847;SDS011;26570;50.962;5.340;2023-07-02T03:27:37;42.90;;;18.47;;
40847;SDS011;26570;50.962;5.340;2023-07-02T03:30:31;40.13;;;17.70;;
40847;SDS011;26570;50.962;5.340;2023-07-02T03:33:57;41.53;;;17.93;;
40847;SDS011;26570;50.962;5.340;2023-07-02T03:37:31;52.00;;;18.87;;
40847;SDS011;26570;50.962;5.340;2023-07-02T03:40:45;57.03;;;19.87;;
40847;SDS011;26570;50.962;5.340;2023-07-02T03:44:07;45.47;;;20.43;;
40847;SDS011;26570;50.962;5.340;2023-07-02T03:47:09;44.03;;;19.50;;
40847;SDS011;26570;50.962;5.340;2023-07-02T03:50:08;49.70;;;18.80;;
40847;SDS011;26570;50.962;5.340;2023-07-02T03:53:00;42.88;;;19.92;;
40847;SDS011;26570;50.962;5.340;2023-07-02T03:56:29;44.50;;;19.90;;
40847;SDS011;26570;50.962;5.340;2023-07-02T03:59:32;45.93;;;18.93;;
40847;SDS011;26570;50.962;5.340;2023-07-02T04:03:03;39.57;;;19.37;;
40847;SDS011;26570;50.962;5.340;2023-07-02T04:06:27;40.30;;;19.52;;
40847;SDS011;26570;50.962;5.340;2023-07-02T04:09:27;53.37;;;22.03;;
40847;SDS011;26570;50.962;5.340;2023-07-02T04:12:43;43.40;;;19.87;;
40847;SDS011;26570;50.962;5.340;2023-07-02T04:16:05;43.93;;;19.73;;
40847;SDS011;26570;50.962;5.340;2023-07-02T04:19:20;46.57;;;20.63;;
40847;SDS011;26570;50.962;5.340;2023-07-02T04:22:14;49.20;;;20.17;;
40847;SDS011;26570;50.962;5.340;2023-07-02T04:25:43;51.60;;;20.60;;
40847;SDS011;26570;50.962;5.340;2023-07-02T04:29:04;51.43;;;20.10;;
40847;SDS011;26570;50.962;5.340;2023-07-02T04:31:57;49.40;;;20.77;;
40847;SDS011;26570;50.962;5.340;2023-07-02T04:34:48;51.00;;;21.50;;
40847;SDS011;26570;50.962;5.340;2023-07-02T04:37:41;55.20;;;20.20;;
40847;SDS011;26570;50.962;5.340;2023-07-02T04:40:38;44.13;;;21.17;;
40847;SDS011;26570;50.962;5.340;2023-07-02T04:43:51;62.53;;;22.87;;
40847;SDS011;26570;50.962;5.340;2023-07-02T04:47:06;50.87;;;20.77;;
40847;SDS011;26570;50.962;5.340;2023-07-02T04:50:59;52.90;;;21.10;;
40847;SDS011;26570;50.962;5.340;2023-07-02T04:53:58;55.60;;;22.10;;
40847;SDS011;26570;50.962;5.340;2023-07-02T04:57:39;49.27;;;21.67;;
40847;SDS011;26570;50.962;5.340;2023-07-02T05:00:38;59.07;;;23.17;;
40847;SDS011;26570;50.962;5.340;2023-07-02T05:03:37;55.43;;;21.70;;
40847;SDS011;26570;50.962;5.340;2023-07-02T05:06:27;48.97;;;20.70;;
40847;SDS011;26570;50.962;5.340;2023-07-02T05:10:05;59.37;;;22.77;;
40847;SDS011;26570;50.962;5.340;2023-07-02T05:12:58;56.10;;;23.23;;
40847;SDS011;26570;50.962;5.340;2023-07-02T05:16:33;51.80;;;21.83;;
40847;SDS011;26570;50.962;5.340;2023-07-02T05:19:43;50.20;;;21.87;;
40847;SDS011;26570;50.962;5.340;2023-07-02T05:23:04;50.90;;;21.27;;
40847;SDS011;26570;50.962;5.340;2023-07-02T05:26:41;51.90;;;21.83;;
40847;SDS011;26570;50.962;5.340;2023-07-02T05:30:01;55.47;;;22.97;;
40847;SDS011;26570;50.962;5.340;2023-07-02T05:33:25;47.57;;;21.73;;
40847;SDS011;26570;50.962;5.340;2023-07-02T05:37:05;59.80;;;23.70;;
40847;SDS011;26570;50.962;5.340;2023-07-02T05:40:18;55.47;;;22.25;;
40847;SDS011;26570;50.962;5.340;2023-07-02T05:43:06;55.80;;;22.50;;
40847;SDS011;26570;50.962;5.340;2023-07-02T05:46:02;55.13;;;23.50;;
40847;SDS011;26570;50.962;5.340;2023-07-02T05:49:04;55.40;;;23.73;;
40847;SDS011;26570;50.962;5.340;2023-07-02T05:52:21;54.70;;;21.97;;
40847;SDS011;26570;50.962;5.340;2023-07-02T05:55:11;57.13;;;22.30;;
40847;SDS011;26570;50.962;5.340;2023-07-02T05:58:46;49.63;;;22.00;;
40847;SDS011;26570;50.962;5.340;2023-07-02T06:01:46;50.40;;;23.73;;
40847;SDS011;26570;50.962;5.340;2023-07-02T06:04:43;54.70;;;23.17;;
40847;SDS011;26570;50.962;5.340;2023-07-02T06:07:38;56.40;;;23.10;;
40847;SDS011;26570;50.962;5.340;2023-07-02T06:11:06;51.63;;;22.97;;
40847;SDS011;26570;50.962;5.340;2023-07-02T06:13:58;62.20;;;24.60;;
40847;SDS011;26570;50.962;5.340;2023-07-02T06:17:16;50.73;;;22.73;;
40847;SDS011;26570;50.962;5.340;2023-07-02T06:21:08;57.70;;;24.23;;
40847;SDS011;26570;50.962;5.340;2023-07-02T06:24:09;58.27;;;23.23;;
40847;SDS011;26570;50.962;5.340;2023-07-02T06:27:33;56.37;;;22.17;;
40847;SDS011;26570;50.962;5.340;2023-07-02T06:30:36;47.90;;;21.00;;
40847;SDS011;26570;50.962;5.340;2023-07-02T06:34:18;48.40;;;20.92;;
40847;SDS011;26570;50.962;5.340;2023-07-02T06:37:11;46.13;;;20.58;;
40847;SDS011;26570;50.962;5.340;2023-07-02T06:40:35;56.38;;;22.33;;
40847;SDS011;26570;50.962;5.340;2023-07-02T06:43:28;45.45;;;20.23;;
40847;SDS011;26570;50.962;5.340;2023-07-02T06:46:41;45.45;;;22.45;;
40847;SDS011;26570;50.962;5.340;2023-07-02T06:50:39;50.63;;;22.77;;
40847;SDS011;26570;50.962;5.340;2023-07-02T06:54:02;44.80;;;20.80;;
40847;SDS011;26570;50.962;5.340;2023-07-02T06:57:12;44.67;;;20.83;;
40847;SDS011;26570;50.962;5.340;2023-07-02T07:00:01;50.75;;;22.52;;
40847;SDS011;26570;50.962;5.340;2023-07-02T07:03:19;48.38;;;21.00;;
40847;SDS011;26570;50.962;5.340;2023-07-02T07:07:02;45.90;;;19.08;;
40847;SDS011;26570;50.962;5.340;2023-07-02T07:10:21;42.90;;;19.50;;
40847;SDS011;26570;50.962;5.340;2023-07-02T07:13:29;40.08;;;18.88;;
40847;SDS011;26570;50.962;5.340;2023-07-02T07:17:27;46.60;;;19.38;;
40847;SDS011;26570;50.962;5.340;2023-07-02T07:20:19;50.38;;;20.27;;
40847;SDS011;26570;50.962;5.340;2023-07-02T07:23:18;47.95;;;18.38;;
40847;SDS011;26570;50.962;5.340;2023-07-02T07:26:58;48.60;;;19.90;;
40847;SDS011;26570;50.962;5.340;2023-07-02T07:30:10;49.80;;;21.65;;
40847;SDS011;26570;50.962;5.340;2023-07-02T07:33:10;54.40;;;21.83;;
40847;SDS011;26570;50.962;5.340;2023-07-02T07:36:08;47.42;;;21.45;;
40847;SDS011;26570;50.962;5.340;2023-07-02T07:39:38;47.47;;;21.42;;
40847;SDS011;26570;50.962;5.340;2023-07-02T07:42:38;50.85;;;19.83;;
40847;SDS011;26570;50.962;5.340;2023-07-02T07:45:37;43.53;;;20.48;;
40847;SDS011;26570;50.962;5.340;2023-07-02T07:48:53;44.95;;;19.65;;
40847;SDS011;26570;50.962;5.340;2023-07-02T07:52:42;50.03;;;20.88;;
40847;SDS011;26570;50.962;5.340;2023-07-02T07:55:56;52.72;;;20.38;;
40847;SDS011;26570;50.962;5.340;2023-07-02T07:59:01;40.80;;;19.38;;
40847;SDS011;26570;50.962;5.340;2023-07-02T08:02:12;40.88;;;18.95;;
40847;SDS011;26570;50.962;5.340;2023-07-02T08:05:30;46.40;;;19.33;;
40847;SDS011;26570;50.962;5.340;2023-07-02T08:08:52;42.80;;;17.67;;
40847;SDS011;26570;50.962;5.340;2023-07-02T08:12:12;42.00;;;17.10;;
40847;SDS011;26570;50.962;5.340;2023-07-02T08:15:34;40.63;;;17.60;;
40847;SDS011;26570;50.962;5.340;2023-07-02T08:18:40;40.80;;;16.58;;
40847;SDS011;26570;50.962;5.340;2023-07-02T08:22:03;30.50;;;12.50;;
40847;SDS011;26570;50.962;5.340;2023-07-02T08:25:30;28.70;;;10.65;;
40847;SDS011;26570;50.962;5.340;2023-07-02T08:29:08;29.83;;;10.90;;
40847;SDS011;26570;50.962;5.340;2023-07-02T08:32:05;26.38;;;9.57;;
40847;SDS011;26570;50.962;5.340;2023-07-02T08:35:05;26.95;;;10.25;;
40847;SDS011;26570;50.962;5.340;2023-07-02T08:38:04;24.90;;;10.25;;
40847;SDS011;26570;50.962;5.340;2023-07-02T08:41:41;30.98;;;12.15;;
40847;SDS011;26570;50.962;5.340;2023-07-02T08:44:28;22.20;;;9.80;;
40847;SDS011;26570;50.962;5.340;2023-07-02T08:47:27;24.55;;;10.70;;
40847;SDS011;26570;50.962;5.340;2023-07-02T08:50:14;23.70;;;10.27;;
40847;SDS011;26570;50.962;5.340;2023-07-02T08:53:36;26.52;;;10.48;;
40847;SDS011;26570;50.962;5.340;2023-07-02T08:56:28;22.40;;;9.32;;
40847;SDS011;26570;50.962;5.340;2023-07-02T08:59:24;22.65;;;9.15;;
40847;SDS011;26570;50.962;5.340;2023-07-02T09:02:44;26.15;;;9.68;;
40847;SDS011;26570;50.962;5.340;2023-07-02T09:05:33;26.38;;;9.55;;
40847;SDS011;26570;50.962;5.340;2023-07-02T09:08:27;24.67;;;8.90;;
40847;SDS011;26570;50.962;5.340;2023-07-02T09:11:25;21.90;;;9.05;;
40847;SDS011;26570;50.962;5.340;2023-07-02T09:17:37;15.45;;;6.97;;
40847;SDS011;26570;50.962;5.340;2023-07-02T09:20:52;17.25;;;7.28;;
40847;SDS011;26570;50.962;5.340;2023-07-02T09:23:54;17.15;;;6.78;;
40847;SDS011;26570;50.962;5.340;2023-07-02T09:26:58;19.40;;;7.03;;
40847;SDS011;26570;50.962;5.340;2023-07-02T09:29:57;20.23;;;6.97;;
40847;SDS011;26570;50.962;5.340;2023-07-02T09:33:05;14.98;;;5.28;;
40847;SDS011;26570;50.962;5.340;2023-07-02T09:36:01;14.48;;;4.97;;
40847;SDS011;26570;50.962;5.340;2023-07-02T09:39:12;13.63;;;4.88;;
40847;SDS011;26570;50.962;5.340;2023-07-02T09:42:20;15.38;;;5.82;;
40847;SDS011;26570;50.962;5.340;2023-07-02T09:45:26;11.27;;;4.85;;
40847;SDS011;26570;50.962;5.340;2023-07-02T09:48:46;16.38;;;4.60;;
40847;SDS011;26570;50.962;5.340;2023-07-02T09:51:46;14.27;;;4.55;;
40847;SDS011;26570;50.962;5.340;2023-07-02T09:54:45;12.95;;;4.82;;
40847;SDS011;26570;50.962;5.340;2023-07-02T09:57:45;12.68;;;4.68;;
40847;SDS011;26570;50.962;5.340;2023-07-02T10:00:39;17.15;;;5.18;;
40847;SDS011;26570;50.962;5.340;2023-07-02T10:03:36;13.65;;;4.55;;
40847;SDS011;26570;50.962;5.340;2023-07-02T10:06:27;10.50;;;4.57;;
40847;SDS011;26570;50.962;5.340;2023-07-02T10:12:45;12.40;;;3.55;;
40847;SDS011;26570;50.962;5.340;2023-07-02T10:15:37;14.48;;;4.63;;
40847;SDS011;26570;50.962;5.340;2023-07-02T10:18:54;14.75;;;4.70;;
40847;SDS011;26570;50.962;5.340;2023-07-02T10:22:04;17.50;;;5.22;;
40847;SDS011;26570;50.962;5.340;2023-07-02T10:25:03;12.13;;;4.45;;
40847;SDS011;26570;50.962;5.340;2023-07-02T10:27:54;14.98;;;5.60;;
40847;SDS011;26570;50.962;5.340;2023-07-02T10:31:22;18.40;;;4.75;;
40847;SDS011;26570;50.962;5.340;2023-07-02T10:37:55;15.00;;;6.43;;
40847;SDS011;26570;50.962;5.340;2023-07-02T10:40:53;18.05;;;6.35;;
40847;SDS011;26570;50.962;5.340;2023-07-02T10:44:05;21.05;;;7.65;;
40847;SDS011;26570;50.962;5.340;2023-07-02T10:46:58;18.42;;;6.50;;
40847;SDS011;26570;50.962;5.340;2023-07-02T10:53:18;20.50;;;7.15;;
40847;SDS011;26570;50.962;5.340;2023-07-02T10:56:35;19.60;;;7.18;;
40847;SDS011;26570;50.962;5.340;2023-07-02T11:00:03;21.23;;;7.55;;
40847;SDS011;26570;50.962;5.340;2023-07-02T11:02:52;20.88;;;7.18;;
40847;SDS011;26570;50.962;5.340;2023-07-02T11:05:54;23.02;;;7.10;;
40847;SDS011;26570;50.962;5.340;2023-07-02T11:09:17;18.55;;;7.10;;
40847;SDS011;26570;50.962;5.340;2023-07-02T11:12:34;19.13;;;7.25;;
40847;SDS011;26570;50.962;5.340;2023-07-02T11:15:35;20.85;;;8.35;;
40847;SDS011;26570;50.962;5.340;2023-07-02T11:18:29;19.50;;;7.57;;
40847;SDS011;26570;50.962;5.340;2023-07-02T11:21:27;23.27;;;8.30;;
40847;SDS011;26570;50.962;5.340;2023-07-02T11:24:45;20.73;;;8.27;;
40847;SDS011;26570;50.962;5.340;2023-07-02T11:28:05;20.40;;;7.78;;
40847;SDS011;26570;50.962;5.340;2023-07-02T11:31:25;26.73;;;9.43;;
40847;SDS011;26570;50.962;5.340;2023-07-02T11:34:18;22.88;;;7.38;;
40847;SDS011;26570;50.962;5.340;2023-07-02T11:37:13;19.92;;;6.85;;
40847;SDS011;26570;50.962;5.340;2023-07-02T11:40:47;22.27;;;7.30;;
40847;SDS011;26570;50.962;5.340;2023-07-02T11:44:02;15.32;;;7.35;;
40847;SDS011;26570;50.962;5.340;2023-07-02T11:47:37;21.80;;;8.20;;
40847;SDS011;26570;50.962;5.340;2023-07-02T11:50:35;20.15;;;7.32;;
40847;SDS011;26570;50.962;5.340;2023-07-02T11:53:33;20.60;;;6.60;;
40847;SDS011;26570;50.962;5.340;2023-07-02T11:56:26;18.27;;;6.93;;
40847;SDS011;26570;50.962;5.340;2023-07-02T11:59:22;20.35;;;7.63;;
40847;SDS011;26570;50.962;5.340;2023-07-02T12:02:12;17.45;;;7.78;;
40847;SDS011;26570;50.962;5.340;2023-07-02T12:05:10;20.92;;;8.25;;
40847;SDS011;26570;50.962;5.340;2023-07-02T12:08:19;21.27;;;8.38;;
40847;SDS011;26570;50.962;5.340;2023-07-02T12:11:22;16.17;;;6.50;;
40847;SDS011;26570;50.962;5.340;2023-07-02T12:14:33;21.13;;;7.28;;
40847;SDS011;26570;50.962;5.340;2023-07-02T12:17:27;20.17;;;8.23;;
40847;SDS011;26570;50.962;5.340;2023-07-02T12:20:50;19.85;;;7.80;;
40847;SDS011;26570;50.962;5.340;2023-07-02T12:23:49;22.15;;;7.53;;
40847;SDS011;26570;50.962;5.340;2023-07-02T12:26:42;21.90;;;6.95;;
40847;SDS011;26570;50.962;5.340;2023-07-02T12:29:59;16.80;;;6.47;;
40847;SDS011;26570;50.962;5.340;2023-07-02T12:32:52;24.88;;;7.38;;
40847;SDS011;26570;50.962;5.340;2023-07-02T12:39:26;20.58;;;7.18;;
40847;SDS011;26570;50.962;5.340;2023-07-02T12:42:20;16.27;;;6.80;;
40847;SDS011;26570;50.962;5.340;2023-07-02T12:45:27;20.17;;;7.38;;
40847;SDS011;26570;50.962;5.340;2023-07-02T12:48:39;18.65;;;6.78;;
40847;SDS011;26570;50.962;5.340;2023-07-02T12:51:31;16.25;;;6.70;;
40847;SDS011;26570;50.962;5.340;2023-07-02T12:54:22;16.02;;;6.90;;
40847;SDS011;26570;50.962;5.340;2023-07-02T12:57:16;26.33;;;7.50;;
40847;SDS011;26570;50.962;5.340;2023-07-02T13:00:39;20.92;;;7.15;;
40847;SDS011;26570;50.962;5.340;2023-07-02T13:03:31;16.73;;;7.00;;
40847;SDS011;26570;50.962;5.340;2023-07-02T13:06:40;17.75;;;6.25;;
40847;SDS011;26570;50.962;5.340;2023-07-02T13:09:54;17.92;;;7.18;;
40847;SDS011;26570;50.962;5.340;2023-07-02T13:12:42;18.30;;;6.57;;
40847;SDS011;26570;50.962;5.340;2023-07-02T13:16:02;18.23;;;5.82;;
40847;SDS011;26570;50.962;5.340;2023-07-02T13:19:04;17.88;;;5.82;;
40847;SDS011;26570;50.962;5.340;2023-07-02T13:22:02;14.90;;;6.55;;
40847;SDS011;26570;50.962;5.340;2023-07-02T13:24:49;23.33;;;6.55;;
40847;SDS011;26570;50.962;5.340;2023-07-02T13:27:38;20.20;;;6.72;;
40847;SDS011;26570;50.962;5.340;2023-07-02T13:30:28;20.70;;;8.73;;
40847;SDS011;26570;50.962;5.340;2023-07-02T13:33:38;23.90;;;6.57;;
40847;SDS011;26570;50.962;5.340;2023-07-02T13:36:53;17.00;;;6.57;;
40847;SDS011;26570;50.962;5.340;2023-07-02T13:39:51;17.48;;;6.72;;
40847;SDS011;26570;50.962;5.340;2023-07-02T13:43:11;18.23;;;6.43;;
40847;SDS011;26570;50.962;5.340;2023-07-02T13:46:06;17.98;;;6.25;;
40847;SDS011;26570;50.962;5.340;2023-07-02T13:49:02;18.42;;;6.57;;
40847;SDS011;26570;50.962;5.340;2023-07-02T13:51:50;17.08;;;6.38;;
40847;SDS011;26570;50.962;5.340;2023-07-02T13:54:41;17.27;;;5.82;;
40847;SDS011;26570;50.962;5.340;2023-07-02T13:57:28;16.50;;;5.70;;
40847;SDS011;26570;50.962;5.340;2023-07-02T14:00:16;16.52;;;6.50;;
40847;SDS011;26570;50.962;5.340;2023-07-02T14:03:03;18.17;;;6.60;;
40847;SDS011;26570;50.962;5.340;2023-07-02T14:05:57;16.50;;;5.55;;
40847;SDS011;26570;50.962;5.340;2023-07-02T14:08:48;16.70;;;6.40;;
40847;SDS011;26570;50.962;5.340;2023-07-02T14:11:44;16.23;;;6.25;;
40847;SDS011;26570;50.962;5.340;2023-07-02T14:14:49;18.02;;;6.60;;
40847;SDS011;26570;50.962;5.340;2023-07-02T14:17:39;15.90;;;5.75;;
40847;SDS011;26570;50.962;5.340;2023-07-02T14:20:35;17.80;;;6.55;;
40847;SDS011;26570;50.962;5.340;2023-07-02T14:23:55;13.98;;;5.45;;
40847;SDS011;26570;50.962;5.340;2023-07-02T14:27:09;17.20;;;5.30;;
40847;SDS011;26570;50.962;5.340;2023-07-02T14:30:15;13.80;;;5.80;;
40847;SDS011;26570;50.962;5.340;2023-07-02T14:33:30;14.82;;;5.80;;
40847;SDS011;26570;50.962;5.340;2023-07-02T14:36:41;14.68;;;5.82;;
40847;SDS011;26570;50.962;5.340;2023-07-02T14:40:08;16.45;;;5.68;;
40847;SDS011;26570;50.962;5.340;2023-07-02T14:42:57;15.95;;;6.18;;
40847;SDS011;26570;50.962;5.340;2023-07-02T14:49:21;13.07;;;5.75;;
40847;SDS011;26570;50.962;5.340;2023-07-02T14:52:33;16.45;;;6.00;;
40847;SDS011;26570;50.962;5.340;2023-07-02T14:55:53;15.40;;;5.70;;
40847;SDS011;26570;50.962;5.340;2023-07-02T14:58:49;15.45;;;5.93;;
40847;SDS011;26570;50.962;5.340;2023-07-02T15:01:38;13.07;;;5.47;;
40847;SDS011;26570;50.962;5.340;2023-07-02T15:04:25;14.13;;;5.85;;
40847;SDS011;26570;50.962;5.340;2023-07-02T15:07:29;15.15;;;6.20;;
40847;SDS011;26570;50.962;5.340;2023-07-02T15:10:17;17.08;;;5.28;;
40847;SDS011;26570;50.962;5.340;2023-07-02T15:13:33;16.42;;;5.57;;
40847;SDS011;26570;50.962;5.340;2023-07-02T15:20:44;16.92;;;5.72;;
40847;SDS011;26570;50.962;5.340;2023-07-02T15:24:55;15.82;;;5.03;;
40847;SDS011;26570;50.962;5.340;2023-07-02T15:27:49;14.70;;;5.35;;
40847;SDS011;26570;50.962;5.340;2023-07-02T15:31:07;13.77;;;5.88;;
40847;SDS011;26570;50.962;5.340;2023-07-02T15:34:06;18.50;;;5.55;;
40847;SDS011;26570;50.962;5.340;2023-07-02T15:40:34;15.95;;;5.43;;
40847;SDS011;26570;50.962;5.340;2023-07-02T15:43:34;16.35;;;6.90;;
40847;SDS011;26570;50.962;5.340;2023-07-02T15:46:22;25.50;;;5.70;;
40847;SDS011;26570;50.962;5.340;2023-07-02T15:49:38;18.58;;;5.78;;
40847;SDS011;26570;50.962;5.340;2023-07-02T15:52:48;18.75;;;6.28;;
40847;SDS011;26570;50.962;5.340;2023-07-02T15:55:39;18.42;;;5.60;;
40847;SDS011;26570;50.962;5.340;2023-07-02T15:58:30;18.10;;;5.43;;
40847;SDS011;26570;50.962;5.340;2023-07-02T16:01:36;17.35;;;6.43;;
40847;SDS011;26570;50.962;5.340;2023-07-02T16:04:32;18.55;;;5.97;;
40847;SDS011;26570;50.962;5.340;2023-07-02T16:07:53;18.03;;;6.07;;
40847;SDS011;26570;50.962;5.340;2023-07-02T16:10:52;17.08;;;5.00;;
40847;SDS011;26570;50.962;5.340;2023-07-02T16:14:11;17.40;;;5.60;;
40847;SDS011;26570;50.962;5.340;2023-07-02T16:17:28;13.68;;;5.60;;
40847;SDS011;26570;50.962;5.340;2023-07-02T16:20:52;18.83;;;6.38;;
40847;SDS011;26570;50.962;5.340;2023-07-02T16:24:23;16.33;;;5.38;;
40847;SDS011;26570;50.962;5.340;2023-07-02T16:27:25;14.93;;;5.43;;
40847;SDS011;26570;50.962;5.340;2023-07-02T16:30:24;17.88;;;5.03;;
40847;SDS011;26570;50.962;5.340;2023-07-02T16:33:17;21.98;;;5.45;;
40847;SDS011;26570;50.962;5.340;2023-07-02T16:36:15;16.30;;;4.78;;
40847;SDS011;26570;50.962;5.340;2023-07-02T16:39:10;22.63;;;6.15;;
40847;SDS011;26570;50.962;5.340;2023-07-02T16:42:00;20.65;;;5.32;;
40847;SDS011;26570;50.962;5.340;2023-07-02T16:44:47;20.42;;;5.50;;
40847;SDS011;26570;50.962;5.340;2023-07-02T16:47:37;15.85;;;5.43;;
40847;SDS011;26570;50.962;5.340;2023-07-02T16:51:04;18.75;;;5.80;;
40847;SDS011;26570;50.962;5.340;2023-07-02T16:53:51;12.75;;;4.85;;
40847;SDS011;26570;50.962;5.340;2023-07-02T16:56:38;13.48;;;4.93;;
40847;SDS011;26570;50.962;5.340;2023-07-02T16:59:50;16.90;;;4.60;;
40847;SDS011;26570;50.962;5.340;2023-07-02T17:06:12;11.90;;;3.85;;
40847;SDS011;26570;50.962;5.340;2023-07-02T17:09:16;18.23;;;4.72;;
40847;SDS011;26570;50.962;5.340;2023-07-02T17:12:12;13.05;;;3.83;;
40847;SDS011;26570;50.962;5.340;2023-07-02T17:15:22;19.05;;;4.88;;
40847;SDS011;26570;50.962;5.340;2023-07-02T17:18:43;10.48;;;3.90;;
40847;SDS011;26570;50.962;5.340;2023-07-02T17:21:31;13.82;;;4.03;;
40847;SDS011;26570;50.962;5.340;2023-07-02T17:24:45;13.32;;;4.25;;
40847;SDS011;26570;50.962;5.340;2023-07-02T17:28:15;14.80;;;3.90;;
40847;SDS011;26570;50.962;5.340;2023-07-02T17:31:31;12.65;;;4.45;;
40847;SDS011;26570;50.962;5.340;2023-07-02T17:34:22;18.35;;;4.13;;
40847;SDS011;26570;50.962;5.340;2023-07-02T17:37:49;13.55;;;3.85;;
40847;SDS011;26570;50.962;5.340;2023-07-02T17:40:38;18.38;;;4.28;;
40847;SDS011;26570;50.962;5.340;2023-07-02T17:43:28;16.13;;;4.15;;
40847;SDS011;26570;50.962;5.340;2023-07-02T17:46:43;14.55;;;3.83;;
40847;SDS011;26570;50.962;5.340;2023-07-02T17:49:56;10.55;;;3.33;;
40847;SDS011;26570;50.962;5.340;2023-07-02T17:53:20;13.40;;;3.33;;
40847;SDS011;26570;50.962;5.340;2023-07-02T17:56:35;13.70;;;3.85;;
40847;SDS011;26570;50.962;5.340;2023-07-02T17:59:24;14.98;;;4.20;;
40847;SDS011;26570;50.962;5.340;2023-07-02T18:02:44;19.38;;;4.13;;
40847;SDS011;26570;50.962;5.340;2023-07-02T18:06:24;14.65;;;3.50;;
40847;SDS011;26570;50.962;5.340;2023-07-02T18:09:20;16.90;;;2.95;;
40847;SDS011;26570;50.962;5.340;2023-07-02T18:12:36;14.48;;;3.70;;
40847;SDS011;26570;50.962;5.340;2023-07-02T18:15:44;13.75;;;2.50;;
40847;SDS011;26570;50.962;5.340;2023-07-02T18:19:03;9.48;;;2.28;;
40847;SDS011;26570;50.962;5.340;2023-07-02T18:22:19;15.93;;;2.28;;
40847;SDS011;26570;50.962;5.340;2023-07-02T18:25:49;8.77;;;2.78;;
40847;SDS011;26570;50.962;5.340;2023-07-02T18:29:07;14.57;;;2.03;;
40847;SDS011;26570;50.962;5.340;2023-07-02T18:35:44;12.38;;;1.60;;
40847;SDS011;26570;50.962;5.340;2023-07-02T18:39:10;15.52;;;2.03;;
40847;SDS011;26570;50.962;5.340;2023-07-02T18:42:10;13.65;;;2.45;;
40847;SDS011;26570;50.962;5.340;2023-07-02T18:45:38;14.07;;;1.87;;
40847;SDS011;26570;50.962;5.340;2023-07-02T18:48:55;13.40;;;1.98;;
40847;SDS011;26570;50.962;5.340;2023-07-02T18:52:36;12.25;;;1.60;;
40847;SDS011;26570;50.962;5.340;2023-07-02T18:59:46;9.33;;;1.37;;
40847;SDS011;26570;50.962;5.340;2023-07-02T19:03:37;10.97;;;1.20;;
40847;SDS011;26570;50.962;5.340;2023-07-02T19:07:23;14.23;;;1.67;;
40847;SDS011;26570;50.962;5.340;2023-07-02T19:11:08;14.43;;;1.63;;
40847;SDS011;26570;50.962;5.340;2023-07-02T19:14:44;7.97;;;1.20;;
40847;SDS011;26570;50.962;5.340;2023-07-02T19:17:56;13.33;;;1.50;;
40847;SDS011;26570;50.962;5.340;2023-07-02T19:21:31;11.10;;;1.20;;
40847;SDS011;26570;50.962;5.340;2023-07-02T19:28:15;12.30;;;1.97;;
40847;SDS011;26570;50.962;5.340;2023-07-02T19:31:19;7.27;;;1.03;;